Aeroporto :
LOGIN :

Iscrizione | Disclaimer

   EN    FR    IT 

 










Sommario :    VFR   VFR Marginale   IFR   IFR Intensivo   IFR Molto Intensivo
Visibilità : 
Base nubi : 
>= 8 km
>= 3000ft
5 / 8 km
1000 / 3000 ft
1500m / 5 km
500 / 1000 ft
800 / 1500m
200 / 500 ft
< 800m
< 200 ft
Simboli :   Temporali  Nebbia  Neve Forte  Precipitazioni Forti  Vento > 20 kt
SIGMETs :   Varie  Temporali  Ghiacco  Turbolenza  Onda orograficha  Ceneri Vulcaniche






- Altitudine del aeroporto : 587 ft
- Codice IATA : XCR


LFOK - Chalons Vatry

ULTIMO METAR :
  • 222300Z AUTO 34006KT 9999 OVC008 14/13 Q1017 TEMPO 3000 BR

METARs OBSOLETI :
  • 222230Z AUTO 35006KT 9999 OVC009 14/13 Q1017 TEMPO 3000 BR
  • 222200Z AUTO 35007KT 9999 OVC009 14/13 Q1017 TEMPO 3000 BR
  • 222130Z AUTO 35008KT 9999 OVC009 14/14 Q1017 BECMG SCT007 BKN080
  • 222100Z AUTO 34007KT 9999 BKN008 BKN012 OVC030 14/14 Q1017 TEMPO 2000 TSRA BKN007 BKN060CB BKN080
  • 222030Z AUTO 34008KT 9999 OVC007 14/13 Q1016 TEMPO 2000 TSRA BKN007 BKN060CB BKN080

TAF AMD TAF LFOK
Valido dal 22 a 21 ore il 23 a 18 ore UTC


222119Z 2221/2318 01008KT 9999 SCT007 BKN080
TEMPO 2221/2305 3000 BR OVC007
TEMPO 2311/2318 4000 SHRA BKN007 BKN060CB BKN080
PROB30
TEMPO 2314/2318 2000 TSRA



MetMap, La meteo Aeronautica in un colpo d'occhio ! - Copyright ORBIFLY Dicembre 2007 - Disclaimer

ORBIFLY MET'MAP TEAM :

Programmazione e sviluppo : Alexandra Zaïnal
Concezione : Baudouin d'Aumeries
Aiuto per la programmazione : Marc-Olivier Méhu
Supporto tecnico e logistico : Manuel Goepfert
Aiuto per la traduzione : Arnaldo La Scala

Contatto : metmap@orbifly.com




FONTI E CREDITI :

   NOAA